Time;durP1;ratioP1;P1;durP2;ratioP2;P2;SDS_P1;SDS_P2;PMS_P1;PMS_P2;Temp;Humidity;BMP_temperature;BMP_pressure;BME280_temperature;BME280_humidity;BME280_pressure;Samples;Min_cycle;Max_cycle;Signal;HPM_P1;HPM_P2
2022/03/13 00:00:39;;;;;;;12.80;9.50;;;;;;;6.71;41.78;100461.34;5060706;28;20445;-70
2022/03/13 00:03:09;;;;;;;11.67;9.37;;;;;;;6.73;41.51;100458.56;5052272;28;20982;-70
2022/03/13 00:05:41;;;;;;;11.50;8.20;;;;;;;6.54;41.81;100459.88;5060835;28;20449;-70
2022/03/13 00:08:16;;;;;;;13.80;9.37;;;;;;;6.56;41.35;100465.09;5070158;28;20456;-70
2022/03/13 00:10:47;;;;;;;13.73;9.63;;;;;;;6.44;41.89;100458.00;5072635;28;20449;-70
2022/03/13 00:13:17;;;;;;;14.17;10.00;;;;;;;6.44;42.04;100458.00;5060994;28;20491;-70
2022/03/13 00:15:44;;;;;;;10.93;9.10;;;;;;;6.40;41.65;100455.56;5063456;28;20535;-70
2022/03/13 00:18:11;;;;;;;12.97;9.57;;;;;;;6.48;41.76;100459.50;5070640;28;20447;-70
2022/03/13 00:20:40;;;;;;;18.83;9.50;;;;;;;6.45;41.56;100452.59;5066977;28;20445;-70
2022/03/13 00:23:06;;;;;;;13.33;8.80;;;;;;;6.47;41.63;100457.78;5058798;28;20488;-70
2022/03/13 00:25:34;;;;;;;14.50;10.20;;;;;;;6.40;41.37;100452.06;5063983;28;20444;-70
2022/03/13 00:28:00;;;;;;;13.67;10.20;;;;;;;6.54;41.40;100451.91;5060612;28;20564;-70
2022/03/13 00:30:27;;;;;;;12.07;9.23;;;;;;;6.57;41.42;100450.84;5061001;28;20499;-71
2022/03/13 00:32:54;;;;;;;10.77;8.23;;;;;;;6.55;41.68;100450.13;5073628;28;20507;-70
2022/03/13 00:35:20;;;;;;;13.60;9.43;;;;;;;6.49;41.34;100453.22;5062087;28;20444;-69
2022/03/13 00:37:48;;;;;;;12.27;8.83;;;;;;;6.52;42.35;100445.03;5063219;28;20466;-69
2022/03/13 00:40:16;;;;;;;13.27;8.27;;;;;;;6.43;41.72;100451.84;5100962;28;20443;-70
2022/03/13 00:42:42;;;;;;;12.00;8.87;;;;;;;6.34;41.61;100452.50;5093731;28;20486;-70
2022/03/13 00:45:10;;;;;;;12.00;9.07;;;;;;;6.26;42.17;100447.72;5093957;28;20453;-70
2022/03/13 00:47:36;;;;;;;12.13;8.80;;;;;;;6.25;42.05;100448.69;5099693;28;20451;-70
2022/03/13 00:50:04;;;;;;;11.80;9.07;;;;;;;6.24;41.91;100448.81;5063446;28;21005;-70
2022/03/13 00:52:30;;;;;;;12.23;9.13;;;;;;;6.25;42.24;100440.72;5096598;28;21098;-70
2022/03/13 00:54:59;;;;;;;12.63;8.77;;;;;;;6.21;41.64;100433.91;5090197;28;20469;-71
2022/03/13 00:57:25;;;;;;;12.67;9.37;;;;;;;6.22;41.38;100440.94;5094962;28;20443;-71
2022/03/13 00:59:52;;;;;;;13.00;9.13;;;;;;;6.23;41.54;100434.66;5097957;28;20473;-71
2022/03/13 01:02:19;;;;;;;13.37;9.50;;;;;;;6.21;41.69;100439.22;5099423;28;20486;-70
2022/03/13 01:04:45;;;;;;;13.17;9.33;;;;;;;6.22;41.78;100435.63;5093179;28;20436;-70
2022/03/13 01:07:14;;;;;;;14.53;8.73;;;;;;;6.14;41.60;100433.50;5079919;28;20487;-71
2022/03/13 01:09:42;;;;;;;12.70;8.40;;;;;;;6.13;41.42;100436.28;5080971;28;20452;-71
2022/03/13 01:12:11;;;;;;;14.40;9.83;;;;;;;6.13;41.93;100433.63;5080888;28;20459;-71
2022/03/13 01:14:37;;;;;;;11.87;8.90;;;;;;;6.08;41.61;100433.94;5096384;28;20459;-71
2022/03/13 01:17:06;;;;;;;13.20;8.43;;;;;;;5.85;42.04;100430.22;5082186;28;20483;-72
2022/03/13 01:19:33;;;;;;;16.73;10.27;;;;;;;5.80;42.37;100424.38;5080700;28;20448;-71
2022/03/13 01:22:00;;;;;;;13.83;8.37;;;;;;;5.83;42.33;100425.00;5096613;28;20493;-72
2022/03/13 01:24:32;;;;;;;19.80;9.20;;;;;;;5.89;43.11;100426.38;5085105;28;20822;-72
2022/03/13 01:27:02;;;;;;;11.73;9.77;;;;;;;5.82;42.75;100427.75;5102696;28;20447;-72
2022/03/13 01:29:31;;;;;;;11.23;8.43;;;;;;;5.72;43.37;100435.50;5102768;28;20432;-71
2022/03/13 01:31:58;;;;;;;13.10;7.77;;;;;;;5.71;43.68;100430.28;5102376;28;20451;-71
2022/03/13 01:34:46;;;;;;;12.93;10.00;;;;;;;5.63;43.21;100430.81;5104443;28;20933;-71
2022/03/13 01:37:15;;;;;;;17.77;9.43;;;;;;;5.66;42.32;100439.41;5063695;28;20483;-71
2022/03/13 01:39:42;;;;;;;18.30;9.97;;;;;;;5.64;43.69;100429.84;5075823;28;20508;-71
2022/03/13 01:42:09;;;;;;;13.60;9.87;;;;;;;5.58;43.64;100439.06;5101751;28;20521;-71
2022/03/13 01:44:38;;;;;;;15.73;9.93;;;;;;;5.54;42.67;100427.00;5104031;28;20436;-71
2022/03/13 01:47:05;;;;;;;14.17;10.37;;;;;;;5.57;42.42;100429.44;5102730;28;20452;-70
2022/03/13 01:49:32;;;;;;;13.50;9.60;;;;;;;5.56;42.02;100422.44;5103833;28;20439;-70
2022/03/13 01:51:58;;;;;;;13.57;9.57;;;;;;;5.38;42.52;100419.22;5086632;28;20451;-70
2022/03/13 01:54:25;;;;;;;15.07;9.37;;;;;;;5.33;42.96;100421.34;5097386;28;20454;-70
2022/03/13 01:56:53;;;;;;;13.83;9.23;;;;;;;5.32;43.40;100419.63;5102523;28;20435;-70
2022/03/13 01:59:21;;;;;;;15.10;10.80;;;;;;;5.27;43.22;100419.09;5095105;28;20514;-70
2022/03/13 02:01:49;;;;;;;11.70;8.90;;;;;;;5.36;43.23;100422.91;5084363;28;20487;-72
2022/03/13 02:04:24;;;;;;;15.80;9.47;;;;;;;5.33;43.24;100418.69;5083958;28;20436;-73
2022/03/13 02:06:50;;;;;;;13.60;9.93;;;;;;;5.39;46.83;100414.75;5101120;28;20454;-72
2022/03/13 02:09:17;;;;;;;17.43;10.33;;;;;;;5.34;47.61;100408.91;5101109;28;20459;-72
2022/03/13 02:11:44;;;;;;;12.67;9.53;;;;;;;5.25;48.28;100413.88;5088825;28;20483;-73
2022/03/13 02:14:14;;;;;;;11.20;10.00;;;;;;;5.17;47.62;100413.53;5094058;28;20462;-72
2022/03/13 02:16:41;;;;;;;12.40;9.53;;;;;;;5.15;47.49;100418.09;5084647;28;20513;-72
2022/03/13 02:19:09;;;;;;;13.63;9.23;;;;;;;5.11;47.74;100419.25;5083997;28;20537;-73
2022/03/13 02:21:39;;;;;;;11.93;9.10;;;;;;;5.04;47.52;100421.47;5086270;28;20513;-72
2022/03/13 02:24:12;;;;;;;16.60;9.00;;;;;;;4.95;46.72;100426.50;5078258;28;20834;-72
2022/03/13 02:26:39;;;;;;;15.30;10.10;;;;;;;4.90;46.59;100416.22;5103453;28;20447;-72
2022/03/13 02:29:11;;;;;;;18.83;9.77;;;;;;;4.94;45.24;100420.34;5086584;28;20444;-72
2022/03/13 02:31:39;;;;;;;13.27;9.73;;;;;;;4.99;44.60;100422.72;5096119;28;20440;-73
2022/03/13 02:34:06;;;;;;;11.40;8.67;;;;;;;5.00;45.03;100417.31;5084438;28;20448;-73
2022/03/13 02:36:54;;;;;;;13.70;10.13;;;;;;;4.95;44.31;100410.59;5084132;28;20463;-73
2022/03/13 02:39:22;;;;;;;11.90;8.80;;;;;;;4.99;44.00;100412.13;5087388;28;21015;-73
2022/03/13 02:41:49;;;;;;;13.47;9.23;;;;;;;5.02;44.62;100409.28;5102332;28;20504;-73
2022/03/13 02:44:18;;;;;;;10.93;8.87;;;;;;;4.94;44.61;100403.63;5102585;28;20442;-73
2022/03/13 02:46:54;;;;;;;12.63;9.13;;;;;;;4.92;44.56;100405.53;5089821;28;20459;-72
2022/03/13 02:49:22;;;;;;;11.30;8.90;;;;;;;4.89;43.15;100401.25;5083533;28;20476;-72
2022/03/13 02:51:51;;;;;;;11.40;8.80;;;;;;;4.92;43.73;100387.81;5096334;28;20473;-72
2022/03/13 02:54:18;;;;;;;10.87;8.50;;;;;;;4.85;43.11;100381.22;5089589;28;20517;-71
2022/03/13 02:56:46;;;;;;;11.03;8.33;;;;;;;4.74;43.70;100383.72;5099359;28;20443;-71
2022/03/13 02:59:13;;;;;;;12.10;9.10;;;;;;;4.80;43.32;100375.38;5098728;28;20450;-71
2022/03/13 03:01:41;;;;;;;13.03;8.93;;;;;;;4.80;43.74;100381.53;5081953;28;20543;-71
2022/03/13 03:04:08;;;;;;;14.10;10.37;;;;;;;4.84;44.49;100376.88;5098871;28;20478;-71
2022/03/13 03:06:35;;;;;;;13.47;9.30;;;;;;;4.78;46.67;100370.19;5083886;28;20452;-72
2022/03/13 03:09:03;;;;;;;18.70;9.53;;;;;;;4.65;46.69;100377.22;5082115;28;20448;-72
2022/03/13 03:11:32;;;;;;;15.40;9.73;;;;;;;4.52;44.59;100379.81;5102171;28;20447;-72
2022/03/13 03:14:01;;;;;;;13.50;8.50;;;;;;;4.62;43.86;100378.28;5101047;28;20450;-73
2022/03/13 03:16:28;;;;;;;14.63;9.80;;;;;;;4.62;43.36;100375.63;5091560;28;20947;-72
2022/03/13 03:18:54;;;;;;;12.03;8.33;;;;;;;4.67;43.16;100376.19;5100032;28;20463;-72
2022/03/13 03:21:21;;;;;;;13.93;9.00;;;;;;;4.69;42.76;100379.59;5102252;28;20428;-71
2022/03/13 03:23:49;;;;;;;13.30;9.07;;;;;;;4.64;42.99;100378.19;5097063;28;20539;-72
2022/03/13 03:26:16;;;;;;;11.07;7.90;;;;;;;4.52;42.99;100380.66;5091081;28;20538;-73
2022/03/13 03:28:44;;;;;;;13.43;9.20;;;;;;;4.52;42.03;100375.38;5086355;28;20459;-71
2022/03/13 03:31:13;;;;;;;9.97;7.90;;;;;;;4.64;42.21;100378.19;5082923;28;20539;-73
2022/03/13 03:33:39;;;;;;;14.30;8.70;;;;;;;4.61;42.34;100375.72;5081667;28;20941;-73
2022/03/13 03:36:06;;;;;;;11.80;8.67;;;;;;;4.52;42.44;100374.53;5098019;28;20491;-73
2022/03/13 03:38:33;;;;;;;12.63;8.53;;;;;;;4.51;42.54;100380.75;5081324;28;20479;-75
2022/03/13 03:41:00;;;;;;;16.03;9.47;;;;;;;4.41;42.71;100379.66;5089686;28;20477;-77
2022/03/13 03:43:26;;;;;;;11.47;8.30;;;;;;;4.34;42.98;100374.75;5101581;28;20536;-75
2022/03/13 03:45:56;;;;;;;15.73;8.50;;;;;;;4.25;43.26;100366.53;5100445;28;20478;-77
2022/03/13 03:48:24;;;;;;;12.73;8.30;;;;;;;4.18;43.50;100371.38;5101507;28;20443;-77
2022/03/13 03:50:50;;;;;;;10.23;7.83;;;;;;;4.21;43.14;100372.97;5100016;28;20450;-77
2022/03/13 03:53:17;;;;;;;14.17;7.97;;;;;;;4.23;43.21;100371.09;5101148;28;20870;-77
2022/03/13 03:55:44;;;;;;;11.80;8.20;;;;;;;4.11;43.07;100378.88;5083815;28;20444;-72
2022/03/13 03:58:12;;;;;;;15.33;8.27;;;;;;;4.05;43.30;100373.09;5081610;28;20459;-76
2022/03/13 04:00:39;;;;;;;12.30;8.30;;;;;;;4.21;43.56;100376.47;5097362;28;20447;-75
2022/03/13 04:03:06;;;;;;;12.83;8.50;;;;;;;3.99;43.69;100374.31;5101668;28;20529;-73
2022/03/13 04:05:34;;;;;;;17.60;9.60;;;;;;;3.91;44.40;100381.91;5101393;28;20451;-73
2022/03/13 04:08:01;;;;;;;13.50;8.67;;;;;;;3.98;44.34;100380.56;5082228;28;20455;-73
2022/03/13 04:10:27;;;;;;;12.17;8.27;;;;;;;3.98;43.63;100383.22;5081951;28;20443;-72
2022/03/13 04:12:54;;;;;;;12.00;8.07;;;;;;;3.86;43.25;100373.41;5082824;28;20478;-74
2022/03/13 04:15:21;;;;;;;12.60;8.63;;;;;;;3.81;44.20;100372.81;5087594;28;20474;-74
2022/03/13 04:17:48;;;;;;;16.70;9.40;;;;;;;3.74;44.63;100372.34;5101360;28;20458;-74
2022/03/13 04:20:14;;;;;;;11.67;8.30;;;;;;;3.71;44.48;100375.16;5099772;28;20459;-72
2022/03/13 04:22:42;;;;;;;12.57;8.37;;;;;;;3.62;44.43;100370.44;5092050;28;20489;-75
2022/03/13 04:25:11;;;;;;;11.20;9.90;;;;;;;3.72;44.35;100375.09;5082690;28;20436;-75
2022/03/13 04:27:38;;;;;;;10.17;7.63;;;;;;;3.76;44.16;100375.75;5101913;28;20443;-74
2022/03/13 04:30:06;;;;;;;11.10;7.80;;;;;;;3.72;44.01;100382.19;5097003;28;20950;-74
2022/03/13 04:32:32;;;;;;;17.60;8.50;;;;;;;3.80;43.79;100369.31;5081586;28;20479;-74
2022/03/13 04:34:59;;;;;;;10.93;8.03;;;;;;;3.65;43.73;100372.91;5083982;28;20470;-75
2022/03/13 04:37:27;;;;;;;11.50;7.57;;;;;;;3.72;43.92;100369.78;5094020;28;20521;-72
2022/03/13 04:39:55;;;;;;;11.60;7.73;;;;;;;3.76;44.15;100367.81;5085385;28;20818;-74
2022/03/13 04:42:22;;;;;;;11.13;8.20;;;;;;;3.61;44.53;100366.09;5080628;28;20903;-73
2022/03/13 04:44:49;;;;;;;9.83;7.20;;;;;;;3.55;43.97;100364.69;5095601;28;20630;-73
2022/03/13 04:47:15;;;;;;;13.30;8.10;;;;;;;3.54;43.80;100373.53;5101325;28;20529;-74
2022/03/13 04:49:42;;;;;;;9.50;7.63;;;;;;;3.53;43.75;100366.56;5100431;28;20436;-73
2022/03/13 04:52:09;;;;;;;13.03;8.33;;;;;;;3.53;43.47;100369.22;5098488;28;20443;-73
2022/03/13 04:54:36;;;;;;;11.20;8.27;;;;;;;3.50;43.74;100366.75;5080996;28;20467;-72
2022/03/13 04:57:05;;;;;;;10.70;8.20;;;;;;;3.51;43.87;100369.31;5094643;28;20473;-73
2022/03/13 04:59:32;;;;;;;11.00;7.90;;;;;;;3.45;43.71;100374.94;5090231;28;20443;-74
2022/03/13 05:01:59;;;;;;;13.80;8.07;;;;;;;3.50;43.97;100374.69;5095467;28;20488;-73
2022/03/13 05:04:26;;;;;;;10.73;7.80;;;;;;;3.49;43.50;100373.84;5099711;28;20435;-75
2022/03/13 05:06:53;;;;;;;10.83;8.70;;;;;;;3.49;43.68;100372.97;5086056;28;20464;-74
2022/03/13 05:09:20;;;;;;;12.17;8.00;;;;;;;3.48;43.86;100369.47;5085320;28;20483;-73
2022/03/13 05:11:47;;;;;;;13.10;8.43;;;;;;;3.55;43.43;100383.19;5094590;28;20452;-75
2022/03/13 05:14:15;;;;;;;14.00;9.30;;;;;;;3.50;43.57;100378.16;5085526;28;20921;-74
2022/03/13 05:16:42;;;;;;;10.50;7.20;;;;;;;3.53;43.62;100374.50;5092385;28;20537;-73
2022/03/13 05:19:08;;;;;;;18.47;9.40;;;;;;;3.52;43.47;100376.28;5088716;28;20486;-73
2022/03/13 05:21:36;;;;;;;14.00;8.70;;;;;;;3.58;43.17;100383.00;5084149;28;20432;-74
2022/03/13 05:24:03;;;;;;;11.77;9.10;;;;;;;3.52;43.46;100381.56;5087995;28;20499;-74
2022/03/13 05:26:30;;;;;;;11.87;8.77;;;;;;;3.42;43.52;100385.72;5084713;28;20444;-71
2022/03/13 05:28:57;;;;;;;12.37;8.17;;;;;;;3.47;43.96;100378.38;5083917;28;20523;-73
2022/03/13 05:31:25;;;;;;;16.33;8.50;;;;;;;3.49;43.93;100384.41;5086308;28;20455;-73
2022/03/13 05:33:52;;;;;;;13.00;7.90;;;;;;;3.49;43.51;100386.19;5084063;28;20451;-78
2022/03/13 05:36:19;;;;;;;13.53;8.57;;;;;;;3.47;43.24;100377.50;5084344;28;20452;-74
2022/03/13 05:38:45;;;;;;;13.27;8.77;;;;;;;3.45;43.49;100388.16;5087066;28;20482;-74
2022/03/13 05:41:13;;;;;;;13.03;9.10;;;;;;;3.35;43.62;100395.81;5097423;28;20435;-75
2022/03/13 05:43:42;;;;;;;13.47;9.10;;;;;;;3.36;44.00;100392.19;5085139;28;20475;-70
2022/03/13 05:46:10;;;;;;;11.87;8.17;;;;;;;3.45;43.96;100395.25;5084997;28;20470;-70
2022/03/13 05:48:39;;;;;;;14.80;9.13;;;;;;;3.46;43.71;100396.97;5085197;28;20551;-71
2022/03/13 05:51:06;;;;;;;11.07;7.93;;;;;;;3.42;43.73;100401.59;5083472;28;20551;-71
2022/03/13 05:53:33;;;;;;;14.67;8.30;;;;;;;3.35;44.04;100401.09;5083406;28;20501;-70
2022/03/13 05:56:00;;;;;;;11.77;7.87;;;;;;;3.52;43.71;100402.72;5083938;28;20443;-70
2022/03/13 05:58:26;;;;;;;11.30;8.10;;;;;;;3.62;43.10;100395.09;5083989;28;20447;-70
2022/03/13 06:01:05;;;;;;;11.53;8.60;;;;;;;3.66;43.16;100398.41;5084871;28;20451;-70
2022/03/13 06:03:32;;;;;;;12.37;9.37;;;;;;;3.72;43.41;100398.03;5070190;28;20996;-70
2022/03/13 06:06:02;;;;;;;9.43;7.37;;;;;;;3.84;43.14;100402.56;5084546;28;20444;-70
2022/03/13 06:08:28;;;;;;;12.90;8.60;;;;;;;4.55;42.23;100406.09;5086220;28;20463;-71
2022/03/13 06:10:55;;;;;;;13.90;8.43;;;;;;;5.56;39.85;100411.81;5086700;28;20478;-71
2022/03/13 06:13:22;;;;;;;12.30;8.17;;;;;;;6.44;37.90;100412.84;5101961;28;20478;-70
2022/03/13 06:15:50;;;;;;;13.50;8.97;;;;;;;6.50;37.07;100402.63;5094646;28;20444;-69
2022/03/13 06:18:16;;;;;;;11.90;9.60;;;;;;;6.86;37.03;100411.56;5085868;28;20448;-71
2022/03/13 06:20:43;;;;;;;13.20;7.80;;;;;;;6.78;36.09;100408.59;5103002;28;20471;-70
2022/03/13 06:23:13;;;;;;;11.47;8.13;;;;;;;6.27;37.37;100406.06;5102940;28;20538;-70
2022/03/13 06:25:40;;;;;;;16.57;11.30;;;;;;;5.85;38.35;100408.97;5104176;28;20526;-70
2022/03/13 06:28:07;;;;;;;16.57;11.60;;;;;;;5.69;38.80;100403.03;5103473;28;20443;-70
2022/03/13 06:30:34;;;;;;;10.90;9.13;;;;;;;5.16;39.41;100403.06;5101729;28;20461;-72
2022/03/13 06:33:01;;;;;;;13.90;10.77;;;;;;;5.23;39.50;100399.03;5092049;28;20459;-71
2022/03/13 06:35:28;;;;;;;27.30;23.47;;;;;;;5.12;39.38;100406.84;5103868;28;20424;-73
2022/03/13 06:37:55;;;;;;;14.00;12.17;;;;;;;5.65;38.76;100405.03;5102600;28;20512;-73
2022/03/13 06:40:24;;;;;;;10.50;7.93;;;;;;;7.72;34.93;100402.44;5103402;28;20534;-72
2022/03/13 06:42:52;;;;;;;14.57;10.17;;;;;;;9.34;32.32;100402.81;5103233;28;21239;-73
2022/03/13 06:45:20;;;;;;;14.23;10.93;;;;;;;10.24;30.70;100397.81;5100412;28;20450;-72
2022/03/13 06:47:49;;;;;;;16.30;13.20;;;;;;;10.79;30.02;100405.47;5082616;28;20448;-71
2022/03/13 06:50:17;;;;;;;24.70;21.20;;;;;;;10.84;28.82;100409.41;5092030;28;20479;-72
2022/03/13 06:52:45;;;;;;;13.87;11.57;;;;;;;11.07;28.62;100404.63;5091859;28;20528;-74
2022/03/13 06:55:13;;;;;;;28.20;21.77;;;;;;;12.04;27.53;100403.69;5103910;28;20432;-74
2022/03/13 06:57:41;;;;;;;13.20;11.80;;;;;;;12.47;26.34;100405.91;5102935;28;20485;-74
2022/03/13 07:00:09;;;;;;;11.17;7.50;;;;;;;13.16;25.44;100402.63;5095138;28;20448;-73
2022/03/13 07:02:36;;;;;;;10.60;7.93;;;;;;;13.19;24.48;100404.16;5096570;28;20443;-73
2022/03/13 07:05:03;;;;;;;11.43;7.80;;;;;;;12.74;24.16;100405.03;5088276;28;20475;-73
2022/03/13 07:07:29;;;;;;;10.07;9.00;;;;;;;12.38;25.21;100404.97;5081765;28;20466;-74
2022/03/13 07:09:57;;;;;;;8.83;7.87;;;;;;;11.40;26.52;100405.19;5086730;28;20524;-74
2022/03/13 07:12:24;;;;;;;9.60;7.20;;;;;;;12.51;25.95;100400.09;5081773;28;20465;-75
2022/03/13 07:14:55;;;;;;;12.60;8.67;;;;;;;11.73;26.03;100400.34;5079778;28;20440;-77
2022/03/13 07:17:22;;;;;;;8.73;7.30;;;;;;;12.51;25.43;100401.94;5081240;28;20455;-75
2022/03/13 07:19:49;;;;;;;13.90;8.40;;;;;;;12.43;24.99;100405.38;5078639;28;20445;-73
2022/03/13 07:22:16;;;;;;;10.10;8.20;;;;;;;11.93;26.32;100398.50;5081296;28;20904;-73
2022/03/13 07:24:46;;;;;;;10.30;8.23;;;;;;;12.14;25.98;100395.63;5081736;28;20558;-74
2022/03/13 07:27:13;;;;;;;9.73;7.80;;;;;;;14.56;23.29;100400.84;5081980;28;20435;-75
2022/03/13 07:29:40;;;;;;;11.20;8.40;;;;;;;14.00;23.31;100397.72;5093530;28;20439;-78
2022/03/13 07:32:09;;;;;;;11.13;7.90;;;;;;;13.26;24.25;100410.63;5102232;28;20489;-80
2022/03/13 07:34:37;;;;;;;9.60;7.60;;;;;;;12.61;24.38;100408.09;5084462;28;20463;-76
2022/03/13 07:37:04;;;;;;;12.53;7.63;;;;;;;12.26;24.50;100411.53;5081902;28;20509;-80
2022/03/13 07:39:31;;;;;;;10.40;7.90;;;;;;;12.28;24.96;100406.84;5081516;28;20542;-77
2022/03/13 07:41:57;;;;;;;12.77;8.57;;;;;;;12.75;23.82;100410.25;5082040;28;20429;-78
2022/03/13 07:44:24;;;;;;;7.90;7.10;;;;;;;14.78;22.50;100412.88;5084050;28;20505;-78
2022/03/13 07:46:51;;;;;;;10.03;7.70;;;;;;;15.39;21.41;100416.19;5088984;28;20442;-79
2022/03/13 07:49:19;;;;;;;8.93;7.83;;;;;;;15.23;21.61;100417.00;5101606;28;20431;-76
2022/03/13 07:51:46;;;;;;;13.53;8.40;;;;;;;14.75;25.63;100418.59;5100176;28;20440;-76
2022/03/13 07:54:14;;;;;;;9.20;7.73;;;;;;;15.42;21.97;100425.78;5097777;28;20497;-75
2022/03/13 07:56:41;;;;;;;11.60;8.07;;;;;;;17.47;19.20;100416.09;5084395;28;20448;-75
2022/03/13 07:59:07;;;;;;;11.63;8.20;;;;;;;16.78;19.91;100411.47;5082165;28;20469;-73
2022/03/13 08:01:34;;;;;;;10.00;7.63;;;;;;;17.14;19.38;100413.66;5101420;28;20447;-73
2022/03/13 08:04:04;;;;;;;9.53;7.77;;;;;;;17.06;19.19;100409.13;5101829;28;20525;-74
2022/03/13 08:06:34;;;;;;;9.20;8.17;;;;;;;17.09;19.15;100414.19;5101013;28;20821;-74
2022/03/13 08:09:01;;;;;;;10.30;8.40;;;;;;;16.94;19.96;100403.31;5097911;28;20485;-73
2022/03/13 08:11:27;;;;;;;8.73;7.83;;;;;;;16.27;19.77;100394.84;5078765;28;20537;-73
2022/03/13 08:13:54;;;;;;;16.53;8.23;;;;;;;15.30;21.07;100408.28;5097558;28;20565;-73
2022/03/13 08:16:21;;;;;;;9.70;8.40;;;;;;;15.06;21.52;100396.47;5093426;28;20456;-72
2022/03/13 08:18:47;;;;;;;9.93;8.60;;;;;;;15.93;21.08;100386.00;5082770;28;20455;-73
2022/03/13 08:21:15;;;;;;;7.23;6.53;;;;;;;15.02;21.40;100389.75;5085400;28;20555;-74
2022/03/13 08:23:43;;;;;;;10.20;7.30;;;;;;;14.21;22.03;100389.28;5081002;28;20998;-73
2022/03/13 08:26:11;;;;;;;9.07;7.07;;;;;;;14.41;22.11;100395.25;5093958;28;20475;-72
2022/03/13 08:28:38;;;;;;;9.63;7.80;;;;;;;14.07;22.50;100392.56;5092319;28;20452;-72
2022/03/13 08:31:04;;;;;;;9.83;7.40;;;;;;;13.91;23.04;100383.41;5089916;28;20481;-73
2022/03/13 08:33:31;;;;;;;8.83;6.87;;;;;;;14.25;22.89;100396.03;5091040;28;20444;-73
2022/03/13 08:35:58;;;;;;;10.17;7.57;;;;;;;15.08;22.28;100386.34;5102304;28;20836;-73
2022/03/13 08:38:24;;;;;;;7.63;6.83;;;;;;;16.06;21.79;100372.00;5081446;28;20476;-72
2022/03/13 08:40:53;;;;;;;8.30;7.30;;;;;;;16.57;20.42;100377.84;5065304;28;20471;-72
2022/03/13 08:43:19;;;;;;;10.87;7.13;;;;;;;15.53;21.42;100368.03;5064862;28;20456;-72
2022/03/13 08:45:46;;;;;;;10.73;7.43;;;;;;;15.05;21.79;100376.78;5065027;28;20441;-72
2022/03/13 08:48:13;;;;;;;10.03;7.30;;;;;;;15.91;21.80;100371.03;5065109;28;20479;-72
2022/03/13 08:50:40;;;;;;;9.53;8.50;;;;;;;16.77;20.65;100372.00;5071962;28;20511;-72
2022/03/13 08:53:08;;;;;;;8.03;6.90;;;;;;;17.63;20.04;100379.97;5080869;28;20432;-73
2022/03/13 08:55:35;;;;;;;8.77;7.20;;;;;;;18.27;19.02;100387.59;5082261;28;20519;-72
2022/03/13 08:58:03;;;;;;;9.77;7.30;;;;;;;15.11;20.93;100394.13;5084013;28;20505;-72
2022/03/13 09:00:30;;;;;;;8.07;6.63;;;;;;;16.87;19.81;100382.59;5067173;28;20919;-72
2022/03/13 09:02:57;;;;;;;14.17;7.80;;;;;;;17.01;19.30;100383.69;5062682;28;20496;-72
2022/03/13 09:05:24;;;;;;;7.93;7.13;;;;;;;17.28;18.86;100371.50;5059384;28;20511;-72
2022/03/13 09:07:52;;;;;;;10.50;7.90;;;;;;;16.94;19.08;100364.66;5067047;28;20492;-72
2022/03/13 09:10:19;;;;;;;8.73;7.20;;;;;;;16.89;19.69;100369.75;5067001;28;20759;-72
2022/03/13 09:12:46;;;;;;;8.33;7.47;;;;;;;16.95;19.19;100366.34;5082562;28;20456;-72
2022/03/13 09:15:14;;;;;;;11.37;7.60;;;;;;;16.27;19.50;100366.00;5065817;28;20475;-71
2022/03/13 09:17:42;;;;;;;8.30;7.40;;;;;;;17.01;19.03;100365.63;5077617;28;20440;-73
2022/03/13 09:20:11;;;;;;;10.40;7.30;;;;;;;16.57;19.49;100356.25;5061774;28;20461;-74
2022/03/13 09:22:38;;;;;;;7.80;6.50;;;;;;;16.34;19.61;100361.59;5065661;28;20494;-72
2022/03/13 09:25:06;;;;;;;10.93;6.70;;;;;;;16.38;19.79;100359.38;5083591;28;20483;-75
2022/03/13 09:27:33;;;;;;;10.47;7.27;;;;;;;14.68;20.91;100367.28;5077201;28;20452;-74
2022/03/13 09:29:59;;;;;;;8.90;7.23;;;;;;;14.66;20.85;100368.47;5065868;28;20457;-75
2022/03/13 09:32:28;;;;;;;11.20;7.73;;;;;;;15.18;19.98;100370.06;5079032;28;21035;-69
2022/03/13 09:34:55;;;;;;;8.00;7.00;;;;;;;15.33;20.49;100370.19;5070160;28;20452;-70
2022/03/13 09:37:23;;;;;;;9.00;7.43;;;;;;;15.27;20.17;100379.81;5082112;28;20460;-70
2022/03/13 09:42:31;;;;;;;9.07;7.37;;;;;;;15.63;20.13;100379.47;5093864;27;1736115;-74
2022/03/13 09:44:59;;;;;;;9.33;8.10;;;;;;;15.32;19.86;100382.00;5139376;28;20223;-75
2022/03/13 09:47:26;;;;;;;7.60;6.80;;;;;;;15.28;20.76;100381.50;5137715;28;20445;-69
2022/03/13 09:49:53;;;;;;;8.27;7.47;;;;;;;16.78;19.36;100372.84;5121383;28;20449;-71
2022/03/13 09:52:19;;;;;;;7.53;6.77;;;;;;;17.54;17.97;100378.38;5118583;28;20976;-73
2022/03/13 09:54:46;;;;;;;7.70;6.90;;;;;;;17.53;18.83;100379.38;5121376;28;20660;-72
2022/03/13 09:57:14;;;;;;;10.87;7.70;;;;;;;16.92;18.97;100381.03;5125960;28;20509;-70
2022/03/13 09:59:43;;;;;;;9.47;7.70;;;;;;;16.28;19.51;100378.47;5131739;28;20449;-66
2022/03/13 10:02:10;;;;;;;8.30;7.30;;;;;;;15.81;19.89;100374.75;5123787;28;20533;-70
2022/03/13 10:04:36;;;;;;;7.90;7.10;;;;;;;17.02;18.16;100370.00;5129808;28;20438;-70
2022/03/13 10:07:06;;;;;;;9.00;7.20;;;;;;;17.80;17.68;100369.84;5128102;28;20461;-69
2022/03/13 10:09:33;;;;;;;9.13;7.07;;;;;;;16.85;18.40;100365.72;5126055;28;20443;-69
2022/03/13 10:12:06;;;;;;;10.10;7.20;;;;;;;15.82;19.84;100362.94;5123960;28;20577;-69
2022/03/13 10:14:34;;;;;;;11.53;7.43;;;;;;;16.28;18.75;100367.66;5132260;28;20453;-68
2022/03/13 10:17:03;;;;;;;10.70;7.30;;;;;;;17.40;18.84;100367.34;5122170;28;20461;-69
2022/03/13 10:19:31;;;;;;;9.87;7.20;;;;;;;17.03;18.78;100360.88;5117979;28;20476;-69
2022/03/13 10:22:05;;;;;;;9.50;7.00;;;;;;;18.14;17.92;100363.06;5117499;28;20527;-68
2022/03/13 10:24:41;;;;;;;8.17;7.03;;;;;;;18.42;17.91;100360.53;5116074;28;21278;-68
2022/03/13 10:27:12;;;;;;;8.93;6.63;;;;;;;17.62;18.06;100354.81;5119015;28;20458;-70
2022/03/13 10:29:40;;;;;;;11.20;7.50;;;;;;;17.54;17.93;100357.59;5118155;28;20450;-70
2022/03/13 10:32:09;;;;;;;7.73;6.90;;;;;;;17.21;18.79;100349.78;5116463;28;20497;-69
2022/03/13 10:34:36;;;;;;;9.00;7.07;;;;;;;17.60;18.56;100346.06;5126555;28;20449;-72
2022/03/13 10:37:03;;;;;;;8.53;7.23;;;;;;;17.75;18.32;100350.63;5122156;28;20449;-73
2022/03/13 10:39:31;;;;;;;7.87;7.07;;;;;;;17.70;18.66;100345.75;5137016;28;20449;-74
2022/03/13 10:42:02;;;;;;;10.00;7.77;;;;;;;18.27;17.82;100355.13;5134920;28;20493;-73
2022/03/13 10:44:33;;;;;;;9.57;8.10;;;;;;;18.32;17.98;100341.88;5131345;28;20457;-72
2022/03/13 10:47:01;;;;;;;8.80;6.73;;;;;;;17.98;18.07;100345.16;5129006;28;20475;-72
2022/03/13 10:49:40;;;;;;;8.57;7.00;;;;;;;18.28;18.25;100339.72;5134145;28;20445;-72
2022/03/13 10:52:25;;;;;;;8.03;7.10;;;;;;;17.53;19.46;100342.38;5123484;28;20563;-73
2022/03/13 10:54:53;;;;;;;7.40;6.70;;;;;;;18.37;18.31;100335.91;5122382;28;20518;-72
2022/03/13 10:57:20;;;;;;;8.30;7.33;;;;;;;18.15;17.78;100340.41;5124712;28;20418;-73
2022/03/13 11:00:11;;;;;;;8.57;7.37;;;;;;;19.15;17.01;100344.25;5122914;28;20542;-73
2022/03/13 11:02:38;;;;;;;9.70;7.33;;;;;;;16.73;19.33;100335.56;5104791;28;20530;-72
2022/03/13 11:05:07;;;;;;;9.30;7.27;;;;;;;18.19;17.79;100326.31;5104493;28;20504;-72
2022/03/13 11:07:35;;;;;;;7.30;6.60;;;;;;;18.11;17.83;100328.28;5104571;28;20473;-72
2022/03/13 11:10:02;;;;;;;7.40;6.60;;;;;;;17.62;18.65;100316.09;5107066;28;20447;-72
2022/03/13 11:12:30;;;;;;;8.17;6.33;;;;;;;17.48;19.15;100329.44;5103617;28;20479;-72
2022/03/13 11:15:00;;;;;;;13.30;7.57;;;;;;;17.53;19.07;100323.44;5103936;28;20439;-72
2022/03/13 11:17:30;;;;;;;8.40;7.47;;;;;;;17.27;18.48;100315.75;5102798;28;20423;-72
2022/03/13 11:19:58;;;;;;;10.30;8.20;;;;;;;18.18;17.84;100327.31;5103803;28;20451;-72
2022/03/13 11:22:27;;;;;;;12.33;7.57;;;;;;;17.60;18.16;100310.91;5103252;28;20431;-73
2022/03/13 11:24:56;;;;;;;9.83;8.30;;;;;;;17.94;18.45;100317.66;5102664;28;20473;-73
2022/03/13 11:27:25;;;;;;;9.73;7.67;;;;;;;18.43;17.68;100322.41;5103600;28;20423;-73
2022/03/13 11:29:53;;;;;;;11.10;7.60;;;;;;;17.85;18.52;100307.94;5120164;28;20453;-72